createdAt,value
2019-05-22T02:03:13.550Z,39.00
2019-05-22T02:06:23.338Z,38.03
2019-05-22T02:09:20.847Z,36.57
2019-05-22T02:11:58.556Z,36.97
2019-05-22T02:14:36.133Z,38.33
2019-05-22T02:17:12.716Z,36.27
2019-05-22T02:19:48.478Z,31.50
2019-05-22T02:22:45.875Z,25.30
2019-05-22T02:25:18.422Z,25.73
2019-05-22T02:27:52.724Z,27.43
2019-05-22T02:30:28.862Z,25.70
2019-05-22T02:33:06.713Z,24.23
2019-05-22T02:35:47.007Z,23.50
2019-05-22T02:38:32.797Z,24.33
2019-05-22T02:41:15.430Z,23.30
2019-05-22T02:47:16.586Z,22.90
2019-05-22T02:52:58.898Z,20.33
2019-05-22T02:56:17.230Z,18.40
2019-05-22T02:59:33.223Z,18.10
2019-05-22T03:02:47.992Z,16.57
2019-05-22T03:17:20.917Z,14.63
2019-05-22T03:31:54.562Z,13.20
2019-05-22T03:49:30.103Z,15.30
2019-05-22T03:52:36.819Z,14.43
2019-05-22T03:58:21.686Z,12.30
2019-05-22T04:01:33.252Z,12.13
2019-05-22T04:32:17.986Z,15.03
2019-05-22T04:46:43.942Z,18.53
2019-05-22T04:49:27.991Z,19.13
2019-05-22T05:42:46.604Z,19.23
2019-05-22T05:45:58.224Z,17.97
2019-05-22T05:49:07.830Z,18.60
2019-05-22T05:52:36.650Z,18.53
2019-05-22T05:55:15.780Z,19.30
2019-05-22T06:02:20.607Z,19.70
2019-05-22T06:04:53.054Z,19.27
2019-05-22T06:08:00.098Z,19.20
2019-05-22T06:35:32.705Z,18.83
2019-05-22T06:38:33.852Z,20.23
2019-05-22T06:41:16.969Z,18.80
2019-05-22T06:44:33.849Z,19.63
2019-05-22T06:47:21.884Z,19.93
2019-05-22T06:50:07.469Z,19.73
2019-05-22T06:52:43.717Z,19.37
2019-05-22T06:55:16.883Z,19.00
2019-05-22T06:57:48.565Z,18.30
2019-05-22T07:00:26.252Z,17.87
2019-05-22T07:03:02.016Z,17.80
2019-05-22T07:05:37.530Z,19.10
2019-05-22T07:08:14.808Z,18.00
2019-05-22T07:10:48.533Z,17.80
2019-05-22T07:13:23.924Z,17.63
2019-05-22T07:16:00.506Z,17.60
2019-05-22T07:18:42.533Z,16.80
2019-05-22T07:21:18.389Z,15.63
2019-05-22T07:23:50.251Z,13.67
2019-05-22T07:26:22.870Z,14.20
2019-05-22T07:29:00.789Z,14.20
2019-05-22T07:31:36.503Z,13.40
2019-05-22T07:34:08.951Z,12.80
2019-05-22T07:36:41.498Z,13.60
2019-05-22T07:39:14.801Z,12.73
2019-05-22T07:41:47.380Z,12.43
2019-05-22T07:44:19.145Z,12.33
2019-05-22T07:46:52.919Z,11.10
2019-05-22T07:49:25.618Z,11.83
2019-05-22T07:52:01.728Z,10.63
2019-05-22T07:54:43.516Z,10.70
2019-05-22T07:57:21.376Z,10.63
2019-05-22T07:59:53.855Z,10.27
2019-05-22T08:02:29.290Z,10.43
2019-05-22T08:05:05.069Z,9.87
2019-05-22T08:07:45.571Z,9.67
2019-05-22T08:10:15.794Z,9.37
2019-05-22T08:12:49.070Z,9.70
2019-05-22T08:15:26.715Z,9.60
2019-05-22T08:17:59.601Z,9.13
2019-05-22T08:20:32.488Z,9.33
2019-05-22T08:23:04.748Z,9.57
2019-05-22T08:25:40.195Z,9.73
2019-05-22T08:28:13.775Z,8.17
2019-05-22T08:30:45.232Z,7.50
2019-05-22T08:33:20.898Z,7.80
2019-05-22T08:35:52.712Z,7.63
2019-05-22T08:38:31.199Z,7.07
2019-05-22T08:41:06.118Z,7.33
2019-05-22T08:44:11.528Z,7.67
2019-05-22T08:46:19.325Z,7.93
2019-05-22T08:48:53.798Z,8.40
2019-05-22T08:51:30.321Z,7.90
2019-05-22T08:54:05.362Z,7.17
2019-05-22T08:56:41.698Z,8.43
2019-05-22T08:59:19.480Z,7.23
2019-05-22T09:01:51.998Z,7.87
2019-05-22T09:04:27.206Z,7.83
2019-05-22T09:07:00.747Z,7.47
2019-05-22T09:09:33.532Z,6.97
2019-05-22T09:12:09.255Z,7.73
2019-05-22T09:14:45.065Z,8.57
2019-05-22T09:17:16.005Z,9.63
2019-05-22T09:19:47.569Z,9.33
2019-05-22T09:22:19.298Z,10.43
2019-05-22T09:24:50.665Z,9.20
2019-05-22T09:27:21.826Z,9.30
2019-05-22T09:29:53.491Z,9.37
2019-05-22T09:32:24.339Z,10.00
2019-05-22T09:34:55.620Z,10.03
2019-05-22T09:37:26.364Z,10.80
2019-05-22T10:24:18.414Z,10.27
2019-05-22T10:26:49.535Z,10.73
2019-05-22T10:29:21.804Z,9.47
2019-05-22T10:31:54.653Z,7.83
2019-05-22T10:34:25.678Z,8.40
2019-05-22T10:36:56.584Z,8.07
2019-05-22T10:39:28.055Z,7.30
2019-05-22T10:42:00.249Z,7.70
2019-05-22T10:44:31.372Z,7.23
2019-05-22T10:47:02.252Z,7.23
2019-05-22T10:49:32.960Z,7.87
2019-05-22T10:52:04.871Z,7.42
2019-05-22T10:54:35.643Z,7.83
2019-05-22T10:57:07.967Z,10.00
2019-05-22T10:59:38.743Z,8.17
2019-05-22T11:02:10.950Z,7.33
2019-05-22T11:04:42.121Z,7.90
2019-05-22T11:07:18.088Z,8.18
2019-05-22T11:09:52.190Z,7.80
2019-05-22T11:12:24.614Z,8.28
2019-05-22T11:14:55.547Z,8.55
2019-05-22T11:17:26.294Z,8.60
2019-05-22T11:19:56.996Z,7.97
2019-05-22T11:22:28.473Z,8.55
2019-05-22T11:25:02.290Z,8.68
2019-05-22T11:27:33.115Z,9.05
2019-05-22T11:30:05.740Z,9.85
2019-05-22T11:32:36.926Z,10.23
2019-05-22T11:35:12.504Z,9.50
2019-05-22T11:37:43.483Z,9.20
2019-05-22T11:40:14.883Z,10.20
2019-05-22T11:42:46.518Z,9.25
2019-05-22T11:45:18.298Z,9.68
2019-05-22T11:47:49.292Z,10.58
2019-05-22T11:50:22.072Z,10.72
2019-05-22T11:52:53.843Z,10.30
2019-05-22T11:55:43.851Z,10.85
2019-05-22T11:58:01.198Z,10.40
2019-05-22T12:00:34.187Z,11.25
2019-05-22T12:03:05.096Z,9.93
2019-05-22T12:05:38.012Z,10.18
2019-05-22T12:08:09.499Z,10.72
2019-05-22T12:10:41.470Z,10.93
2019-05-22T12:13:13.584Z,12.45
2019-05-22T12:15:44.538Z,11.38
2019-05-22T12:18:15.773Z,10.98
2019-05-22T12:20:48.212Z,12.37
2019-05-22T12:23:19.129Z,10.60
2019-05-22T12:25:51.284Z,12.63
2019-05-22T12:28:22.446Z,10.90
2019-05-22T12:30:53.295Z,10.48
2019-05-22T12:33:24.526Z,9.83
2019-05-22T12:35:56.377Z,9.78
2019-05-22T12:38:27.640Z,9.53
2019-05-22T12:40:59.159Z,10.82
2019-05-22T12:43:31.337Z,9.63
2019-05-22T12:46:03.427Z,10.95
2019-05-22T12:48:35.171Z,11.43
2019-05-22T12:51:06.528Z,11.53
2019-05-22T12:53:37.684Z,9.88
2019-05-22T12:56:09.069Z,9.03
2019-05-22T12:58:40.228Z,8.88
2019-05-22T13:01:12.465Z,8.40
2019-05-22T13:03:44.386Z,8.90
2019-05-22T13:06:15.766Z,8.78
2019-05-22T13:08:47.278Z,9.08
2019-05-22T13:11:18.094Z,8.28
2019-05-22T13:13:50.805Z,7.75
2019-05-22T13:16:22.106Z,7.08
2019-05-22T13:18:54.941Z,8.33
2019-05-22T13:21:32.673Z,7.17
2019-05-22T13:24:16.327Z,7.95
2019-05-22T13:26:51.065Z,9.40
2019-05-22T13:29:24.399Z,8.15
2019-05-22T13:31:57.312Z,8.33
2019-05-22T13:34:29.178Z,7.58
2019-05-22T13:37:00.008Z,7.67
2019-05-22T13:39:31.062Z,8.33
2019-05-22T13:42:01.971Z,7.80
2019-05-22T13:44:35.032Z,8.40
2019-05-22T13:47:06.509Z,8.50
2019-05-22T13:49:40.936Z,8.05
2019-05-22T13:52:12.817Z,8.28
2019-05-22T13:54:45.466Z,9.58
2019-05-22T13:57:23.719Z,8.63
2019-05-22T14:00:16.015Z,7.90
2019-05-22T14:02:54.439Z,7.90
2019-05-22T14:05:27.175Z,7.62
2019-05-22T14:08:06.560Z,7.17
2019-05-22T14:10:41.561Z,8.35
2019-05-22T14:13:23.275Z,7.70
2019-05-22T14:15:56.364Z,7.55
2019-05-22T14:18:32.378Z,8.33
2019-05-22T14:21:04.298Z,8.05
2019-05-22T14:23:37.456Z,8.18
2019-05-22T14:26:08.271Z,8.23
2019-05-22T14:28:41.670Z,7.67
2019-05-22T14:31:12.554Z,7.87
2019-05-22T14:33:43.841Z,7.25
2019-05-22T14:36:25.652Z,8.00
2019-05-22T16:01:59.644Z,9.35
2019-05-22T16:04:32.612Z,9.23
2019-05-22T16:07:09.823Z,9.60
2019-05-22T16:09:42.058Z,9.13
2019-05-22T16:12:14.204Z,9.07
2019-05-22T16:14:47.811Z,9.83
2019-05-22T16:17:19.165Z,9.50
2019-05-22T16:19:50.913Z,9.60
2019-05-22T16:22:22.201Z,8.88
2019-05-22T16:24:53.523Z,8.78
2019-05-22T16:27:25.862Z,11.10
2019-05-22T16:29:57.590Z,9.65
2019-05-22T16:32:34.492Z,9.10
2019-05-22T16:35:03.934Z,9.50
2019-05-22T16:37:35.718Z,9.20
2019-05-22T17:22:53.182Z,9.23
2019-05-22T17:25:31.207Z,8.37
2019-05-22T18:11:09.647Z,8.40
2019-05-22T18:14:03.071Z,7.23
2019-05-22T18:16:37.141Z,8.30
2019-05-22T18:19:08.773Z,8.30
2019-05-22T18:21:40.181Z,8.30
2019-05-22T18:24:14.239Z,8.70
2019-05-22T18:26:45.322Z,7.10
2019-05-22T18:29:19.372Z,8.73
2019-05-22T18:31:48.880Z,8.30
2019-05-22T18:34:19.902Z,8.53
2019-05-22T18:36:50.720Z,8.40
2019-05-22T18:39:22.735Z,8.77
2019-05-22T18:41:53.808Z,7.53
2019-05-22T18:44:24.879Z,8.00
2019-05-22T18:46:59.872Z,7.43
2019-05-22T18:49:31.346Z,8.60
2019-05-22T18:52:03.213Z,8.23
2019-05-22T18:55:28.339Z,9.30
2019-05-22T18:57:37.434Z,7.73
2019-05-22T19:00:38.129Z,9.07
2019-05-22T19:03:10.028Z,8.87
2019-05-22T19:05:45.120Z,7.93
2019-05-22T19:08:16.960Z,8.80
2019-05-22T19:36:32.150Z,8.20
2019-05-22T19:39:03.852Z,8.00
2019-05-22T19:41:35.012Z,7.90
2019-05-22T19:44:09.457Z,8.13
2019-05-22T19:46:40.360Z,7.17
2019-05-22T19:49:13.892Z,7.30
2019-05-22T19:51:45.531Z,7.57
2019-05-22T19:54:17.480Z,7.13
2019-05-22T19:56:49.235Z,7.97
2019-05-22T19:59:21.791Z,7.50
2019-05-22T20:01:56.251Z,7.00
2019-05-22T20:04:33.209Z,7.37
2019-05-22T20:10:38.847Z,7.40
2019-05-22T20:13:18.197Z,7.37
2019-05-22T20:15:53.223Z,7.60
2019-05-22T20:18:32.089Z,8.07
2019-05-22T20:21:14.351Z,7.60
2019-05-22T20:23:47.925Z,7.73
2019-05-22T20:26:25.098Z,7.23
2019-05-22T20:29:08.875Z,7.70
2019-05-22T20:31:47.192Z,7.43
2019-05-22T20:34:28.990Z,7.90
2019-05-22T20:37:28.567Z,8.33
2019-05-22T20:40:08.010Z,8.43
2019-05-22T20:42:54.225Z,8.33
2019-05-22T20:45:40.298Z,8.57
2019-05-22T21:38:48.333Z,16.80
2019-05-22T21:41:22.612Z,20.07
2019-05-22T21:43:57.801Z,22.30
2019-05-22T21:46:31.133Z,23.33
2019-05-22T21:49:10.180Z,23.47
2019-05-22T21:51:43.159Z,22.63
2019-05-22T21:54:16.445Z,21.67
2019-05-22T21:56:50.089Z,23.33
2019-05-22T21:59:23.805Z,20.80
2019-05-22T22:23:40.110Z,24.80
2019-05-22T22:26:25.591Z,25.43
2019-05-22T22:28:51.995Z,26.83
2019-05-22T22:31:25.568Z,27.33
2019-05-22T22:34:06.265Z,24.97
2019-05-22T22:36:40.422Z,26.30
2019-05-22T22:39:16.531Z,24.40
2019-05-22T22:41:50.713Z,24.87
2019-05-22T22:44:23.380Z,24.20
2019-05-22T22:46:58.820Z,24.97
2019-05-22T22:49:31.451Z,26.07
2019-05-22T22:52:04.054Z,24.17
2019-05-22T22:54:40.697Z,23.20
2019-05-22T22:57:12.834Z,22.37
2019-05-22T22:59:47.400Z,21.90
2019-05-22T23:02:25.078Z,22.60
2019-05-22T23:05:01.734Z,23.57
2019-05-22T23:07:35.492Z,22.67
2019-05-22T23:10:10.040Z,23.00
2019-05-22T23:12:43.071Z,24.60
2019-05-22T23:15:18.199Z,25.17
2019-05-22T23:17:52.067Z,23.40
2019-05-22T23:20:22.577Z,25.40
2019-05-22T23:22:51.813Z,23.60
2019-05-22T23:25:26.226Z,23.63
2019-05-22T23:27:57.287Z,24.93
2019-05-22T23:30:30.176Z,24.97
2019-05-22T23:33:03.242Z,25.03
2019-05-22T23:35:36.837Z,24.23
2019-05-22T23:38:09.699Z,24.73
2019-05-22T23:40:42.155Z,24.23
2019-05-22T23:43:14.463Z,25.07
